Time;durP1;ratioP1;P1;durP2;ratioP2;P2;SDS_P1;SDS_P2;PMS_P1;PMS_P2;Temp;Humidity;BMP_temperature;BMP_pressure;BME280_temperature;BME280_humidity;BME280_pressure;Samples;Min_cycle;Max_cycle;Signal;HPM_P1;HPM_P2
2022/08/26 00:01:06;;;;;;;;;;;23.40;89.10;;;;;;5118963;27;20285;-71
2022/08/26 00:03:31;;;;;;;;;;;23.50;89.00;;;;;;5097351;28;19920;-71
2022/08/26 00:05:57;;;;;;;;;;;23.40;89.00;;;;;;5112566;27;19930;-72
2022/08/26 00:08:23;;;;;;;;;;;23.40;89.40;;;;;;5126005;27;19926;-72
2022/08/26 00:10:48;;;;;;;;;;;23.30;89.40;;;;;;5112599;28;19919;-72
2022/08/26 00:13:14;;;;;;;;;;;23.30;89.60;;;;;;5112806;27;20026;-71
2022/08/26 00:15:40;;;;;;;;;;;23.20;89.80;;;;;;5125641;27;19919;-71
2022/08/26 00:18:05;;;;;;;;;;;23.30;89.80;;;;;;5112412;27;19969;-71
2022/08/26 00:20:32;;;;;;;;;;;23.20;89.80;;;;;;5125405;27;19920;-72
2022/08/26 00:22:57;;;;;;;;;;;23.20;89.90;;;;;;5118727;27;19944;-71
2022/08/26 00:25:23;;;;;;;;;;;23.10;90.00;;;;;;5131985;27;19920;-71
2022/08/26 00:27:49;;;;;;;;;;;23.10;90.00;;;;;;5113469;27;20053;-71
2022/08/26 00:30:17;;;;;;;;;;;23.10;90.10;;;;;;5118990;27;19919;-71
2022/08/26 00:32:42;;;;;;;;;;;23.10;90.20;;;;;;5131443;27;19924;-71
2022/08/26 00:35:09;;;;;;;;;;;23.10;90.40;;;;;;5131940;27;19971;-71
2022/08/26 00:37:34;;;;;;;;;;;23.00;90.30;;;;;;5124955;27;19979;-71
2022/08/26 00:40:00;;;;;;;;;;;23.00;90.50;;;;;;5125503;27;20361;-71
2022/08/26 00:42:26;;;;;;;;;;;23.00;90.60;;;;;;5111978;27;20404;-71
2022/08/26 00:44:52;;;;;;;;;;;23.00;90.70;;;;;;5112195;27;19919;-71
2022/08/26 00:47:50;;;;;;;;;;;22.90;90.80;;;;;;5125341;27;20274;-71
2022/08/26 00:50:17;;;;;;;;;;;22.90;91.00;;;;;;5073901;28;19932;-71
2022/08/26 00:52:43;;;;;;;;;;;22.90;91.00;;;;;;5122193;27;19926;-71
2022/08/26 00:55:16;;;;;;;;;;;22.70;91.10;;;;;;5113849;27;20407;-71
2022/08/26 00:57:42;;;;;;;;;;;22.70;91.40;;;;;;5111095;28;19919;-71
2022/08/26 01:00:14;;;;;;;;;;;22.60;91.40;;;;;;5111036;27;19972;-71
2022/08/26 01:02:40;;;;;;;;;;;22.60;91.80;;;;;;5110989;28;19923;-71
2022/08/26 01:05:06;;;;;;;;;;;22.50;91.80;;;;;;5123855;27;20453;-71
2022/08/26 01:07:32;;;;;;;;;;;22.50;92.20;;;;;;5122858;27;19919;-71
2022/08/26 01:09:59;;;;;;;;;;;22.50;92.20;;;;;;5095117;28;20285;-71
2022/08/26 01:12:26;;;;;;;;;;;22.40;92.80;;;;;;5122804;27;19923;-71
2022/08/26 01:14:52;;;;;;;;;;;22.40;93.10;;;;;;5110844;27;19965;-71
2022/08/26 01:17:18;;;;;;;;;;;22.30;93.20;;;;;;5110003;27;20297;-71
2022/08/26 01:19:46;;;;;;;;;;;22.30;93.80;;;;;;5124110;27;19919;-72
2022/08/26 01:22:11;;;;;;;;;;;22.20;94.30;;;;;;5124219;27;19919;-73
2022/08/26 01:24:37;;;;;;;;;;;22.20;94.70;;;;;;5117367;27;19926;-70
2022/08/26 01:27:04;;;;;;;;;;;22.20;94.50;;;;;;5130475;27;19930;-71
2022/08/26 01:29:31;;;;;;;;;;;22.10;95.30;;;;;;5124072;27;19972;-71
2022/08/26 01:31:57;;;;;;;;;;;22.10;95.90;;;;;;5111063;27;19927;-70
2022/08/26 01:34:30;;;;;;;;;;;22.00;96.40;;;;;;5124457;27;19919;-70
2022/08/26 01:37:00;;;;;;;;;;;22.00;96.80;;;;;;5111448;27;20407;-72
2022/08/26 01:39:25;;;;;;;;;;;22.00;97.50;;;;;;5118777;27;19919;-70
2022/08/26 01:41:55;;;;;;;;;;;22.00;98.10;;;;;;5115828;27;20026;-70
2022/08/26 01:44:22;;;;;;;;;;;22.00;98.10;;;;;;5119633;27;20006;-70
2022/08/26 01:46:49;;;;;;;;;;;22.00;99.00;;;;;;5117229;27;19978;-70
2022/08/26 01:49:15;;;;;;;;;;;22.00;98.80;;;;;;5111736;28;19968;-70
2022/08/26 01:51:43;;;;;;;;;;;22.00;99.10;;;;;;5117003;27;19924;-70
2022/08/26 01:54:09;;;;;;;;;;;22.00;99.90;;;;;;5130626;27;19923;-71
2022/08/26 01:56:35;;;;;;;;;;;21.90;99.90;;;;;;5116021;27;19928;-70
2022/08/26 01:59:03;;;;;;;;;;;21.90;99.90;;;;;;5120297;27;20077;-70
2022/08/26 02:01:28;;;;;;;;;;;21.90;99.90;;;;;;5119366;27;20290;-70
2022/08/26 02:04:04;;;;;;;;;;;21.90;99.90;;;;;;5130154;27;19926;-70
2022/08/26 02:06:30;;;;;;;;;;;21.90;99.90;;;;;;5125962;27;19920;-70
2022/08/26 02:08:58;;;;;;;;;;;21.90;99.90;;;;;;5129616;27;19964;-70
2022/08/26 02:11:24;;;;;;;;;;;21.90;99.90;;;;;;5130292;28;19931;-70
2022/08/26 02:13:55;;;;;;;;;;;21.80;99.90;;;;;;5129804;28;20304;-71
2022/08/26 02:16:23;;;;;;;;;;;21.90;99.90;;;;;;5130012;27;19923;-70
2022/08/26 02:18:50;;;;;;;;;;;21.90;99.90;;;;;;5129833;27;20353;-72
2022/08/26 02:21:16;;;;;;;;;;;21.90;99.90;;;;;;5119271;28;19970;-70
2022/08/26 02:23:41;;;;;;;;;;;21.90;99.90;;;;;;5128381;28;19970;-71
2022/08/26 02:26:13;;;;;;;;;;;21.90;99.90;;;;;;5125739;28;19972;-70
2022/08/26 02:28:50;;;;;;;;;;;21.90;99.90;;;;;;5130482;28;19930;-72
2022/08/26 02:31:16;;;;;;;;;;;21.80;99.90;;;;;;5108335;28;19919;-71
2022/08/26 02:33:41;;;;;;;;;;;21.70;99.90;;;;;;5111931;28;19926;-70
2022/08/26 02:36:07;;;;;;;;;;;21.70;99.90;;;;;;5130393;28;19966;-70
2022/08/26 02:38:33;;;;;;;;;;;21.70;99.90;;;;;;5112510;28;20302;-70
2022/08/26 02:40:58;;;;;;;;;;;21.70;99.90;;;;;;5129970;28;20005;-70
2022/08/26 02:43:24;;;;;;;;;;;21.80;99.90;;;;;;5129943;28;20385;-71
2022/08/26 02:45:49;;;;;;;;;;;21.80;99.90;;;;;;5121269;27;19959;-70
2022/08/26 02:48:16;;;;;;;;;;;21.80;99.90;;;;;;5124149;28;19919;-70
2022/08/26 02:50:42;;;;;;;;;;;21.80;99.90;;;;;;5121736;28;19967;-70
2022/08/26 02:53:08;;;;;;;;;;;21.80;99.90;;;;;;5111625;28;19981;-70
2022/08/26 02:55:34;;;;;;;;;;;21.90;99.90;;;;;;5122019;28;19980;-70
2022/08/26 02:58:00;;;;;;;;;;;21.80;99.90;;;;;;5128314;28;20432;-71
2022/08/26 03:00:26;;;;;;;;;;;21.90;99.90;;;;;;5130492;28;19919;-71
2022/08/26 03:02:51;;;;;;;;;;;21.90;99.90;;;;;;5130064;28;19926;-71
2022/08/26 03:05:18;;;;;;;;;;;21.90;99.90;;;;;;5116005;28;19946;-71
2022/08/26 03:07:44;;;;;;;;;;;21.90;99.90;;;;;;5129188;27;20404;-71
2022/08/26 03:10:11;;;;;;;;;;;21.90;99.90;;;;;;5119886;28;19919;-71
2022/08/26 03:12:37;;;;;;;;;;;21.90;99.90;;;;;;5109894;28;19923;-71
2022/08/26 03:15:03;;;;;;;;;;;21.90;99.90;;;;;;5120282;28;19964;-71
2022/08/26 03:17:29;;;;;;;;;;;22.00;99.90;;;;;;5129244;27;19945;-71
2022/08/26 03:19:54;;;;;;;;;;;22.00;99.90;;;;;;5116537;28;20480;-71
2022/08/26 03:22:20;;;;;;;;;;;21.90;99.90;;;;;;5130809;27;19922;-71
2022/08/26 03:24:45;;;;;;;;;;;22.00;99.90;;;;;;5132563;27;19919;-71
2022/08/26 03:27:11;;;;;;;;;;;21.90;99.90;;;;;;5133428;27;19977;-71
2022/08/26 03:32:21;;;;;;;;;;;21.90;99.90;;;;;;5132664;27;20440;-71
2022/08/26 03:34:46;;;;;;;;;;;21.90;99.90;;;;;;5132819;27;20014;-70
2022/08/26 03:37:12;;;;;;;;;;;21.80;99.90;;;;;;5132915;27;19919;-71
2022/08/26 03:39:37;;;;;;;;;;;21.90;99.90;;;;;;5119320;27;19965;-71
2022/08/26 03:42:04;;;;;;;;;;;21.80;99.90;;;;;;5132622;27;19919;-71
2022/08/26 03:44:30;;;;;;;;;;;21.80;99.90;;;;;;5130027;27;19923;-71
2022/08/26 03:46:55;;;;;;;;;;;21.80;99.90;;;;;;5121907;27;19919;-71
2022/08/26 03:49:21;;;;;;;;;;;21.80;99.90;;;;;;5132424;27;19919;-71
2022/08/26 03:51:46;;;;;;;;;;;21.80;99.90;;;;;;5124306;27;20301;-71
2022/08/26 03:54:12;;;;;;;;;;;21.80;99.90;;;;;;5112871;27;19930;-70
2022/08/26 03:56:38;;;;;;;;;;;21.80;99.90;;;;;;5121555;27;19920;-71
2022/08/26 03:59:04;;;;;;;;;;;21.70;99.90;;;;;;5130739;27;20406;-71
2022/08/26 04:01:29;;;;;;;;;;;21.80;99.90;;;;;;5121359;27;19919;-72
2022/08/26 04:03:58;;;;;;;;;;;21.70;99.90;;;;;;5121425;27;19977;-71
2022/08/26 04:06:35;;;;;;;;;;;21.70;99.90;;;;;;5114125;27;19942;-71
2022/08/26 04:09:04;;;;;;;;;;;21.70;99.90;;;;;;5113103;27;19920;-71
2022/08/26 04:11:30;;;;;;;;;;;21.70;99.90;;;;;;5112602;28;19920;-70
2022/08/26 04:13:58;;;;;;;;;;;21.70;99.90;;;;;;5123545;27;19926;-71
2022/08/26 04:16:23;;;;;;;;;;;21.60;99.90;;;;;;5095480;28;19919;-71
2022/08/26 04:18:49;;;;;;;;;;;21.60;99.90;;;;;;5112365;27;20476;-71
2022/08/26 04:21:14;;;;;;;;;;;21.60;99.90;;;;;;5115738;27;19926;-70
2022/08/26 04:23:40;;;;;;;;;;;21.60;99.90;;;;;;5119770;27;19973;-71
2022/08/26 04:26:05;;;;;;;;;;;21.60;99.90;;;;;;5132319;27;19926;-71
2022/08/26 04:28:31;;;;;;;;;;;21.60;99.90;;;;;;5124411;27;19919;-71
2022/08/26 04:30:56;;;;;;;;;;;21.60;99.90;;;;;;5113255;27;19931;-71
2022/08/26 04:33:22;;;;;;;;;;;21.60;99.90;;;;;;5111906;27;20387;-70
2022/08/26 04:35:48;;;;;;;;;;;21.60;99.90;;;;;;5125236;27;19941;-71
2022/08/26 04:38:15;;;;;;;;;;;21.60;99.90;;;;;;5118317;27;20551;-71
2022/08/26 04:40:44;;;;;;;;;;;21.60;99.90;;;;;;5131685;27;19923;-71
2022/08/26 04:43:09;;;;;;;;;;;21.60;99.90;;;;;;5131499;27;19919;-71
2022/08/26 04:45:36;;;;;;;;;;;21.60;99.90;;;;;;5131773;27;19930;-71
2022/08/26 04:48:02;;;;;;;;;;;21.60;99.90;;;;;;5131222;27;19973;-71
2022/08/26 04:50:27;;;;;;;;;;;21.60;99.90;;;;;;5118949;27;19974;-70
2022/08/26 04:52:54;;;;;;;;;;;21.60;99.90;;;;;;5129949;27;19934;-71
2022/08/26 04:55:19;;;;;;;;;;;21.70;99.90;;;;;;5111534;27;19920;-71
2022/08/26 04:57:45;;;;;;;;;;;21.70;99.90;;;;;;5125675;27;19941;-71
2022/08/26 05:00:12;;;;;;;;;;;21.70;99.90;;;;;;5123682;27;19926;-72
2022/08/26 05:02:38;;;;;;;;;;;21.70;99.90;;;;;;5126259;27;19925;-71
2022/08/26 05:05:05;;;;;;;;;;;21.70;99.90;;;;;;5123154;27;19966;-71
2022/08/26 05:07:31;;;;;;;;;;;21.70;99.90;;;;;;5099402;27;19919;-71
2022/08/26 05:09:57;;;;;;;;;;;21.70;99.90;;;;;;5122752;27;19923;-70
2022/08/26 05:12:22;;;;;;;;;;;21.70;99.90;;;;;;5112520;27;19926;-71
2022/08/26 05:14:48;;;;;;;;;;;21.80;99.90;;;;;;5118465;27;20392;-71
2022/08/26 05:17:13;;;;;;;;;;;21.80;99.90;;;;;;5117761;27;20937;-71
2022/08/26 05:19:39;;;;;;;;;;;21.80;99.90;;;;;;5117808;27;19930;-70
2022/08/26 05:22:05;;;;;;;;;;;21.70;99.90;;;;;;5129758;27;19919;-71
2022/08/26 05:24:30;;;;;;;;;;;21.80;99.90;;;;;;5110968;28;20397;-71
2022/08/26 05:26:56;;;;;;;;;;;21.80;99.90;;;;;;5124240;27;19919;-71
2022/08/26 05:29:21;;;;;;;;;;;21.80;99.90;;;;;;5120722;27;19919;-70
2022/08/26 05:31:49;;;;;;;;;;;21.70;99.90;;;;;;5115338;27;19920;-70
2022/08/26 05:34:14;;;;;;;;;;;21.80;99.90;;;;;;5131133;27;19919;-70
2022/08/26 05:36:40;;;;;;;;;;;21.70;99.90;;;;;;5130042;27;20398;-70
2022/08/26 05:39:06;;;;;;;;;;;21.80;99.90;;;;;;5129671;27;19919;-70
2022/08/26 05:41:33;;;;;;;;;;;21.80;99.90;;;;;;5110611;27;19928;-70
2022/08/26 05:43:59;;;;;;;;;;;21.80;99.90;;;;;;5112228;27;20004;-70
2022/08/26 05:46:28;;;;;;;;;;;21.80;99.90;;;;;;5111451;28;19982;-71
2022/08/26 05:48:54;;;;;;;;;;;21.80;99.90;;;;;;5110428;28;20300;-70
2022/08/26 05:51:20;;;;;;;;;;;21.80;99.90;;;;;;5124580;27;19926;-71
2022/08/26 05:53:46;;;;;;;;;;;21.80;99.90;;;;;;5119008;27;19919;-71
2022/08/26 05:56:11;;;;;;;;;;;21.80;99.90;;;;;;5116159;27;19920;-71
2022/08/26 05:58:38;;;;;;;;;;;21.80;99.90;;;;;;5118265;27;20023;-70
2022/08/26 06:01:06;;;;;;;;;;;21.80;99.90;;;;;;5117046;27;19920;-71
2022/08/26 06:03:33;;;;;;;;;;;21.80;99.90;;;;;;5130849;27;20313;-71
2022/08/26 06:06:02;;;;;;;;;;;21.90;99.90;;;;;;5128899;27;19979;-72
2022/08/26 06:08:28;;;;;;;;;;;21.80;99.90;;;;;;5109186;28;19920;-71
2022/08/26 06:10:54;;;;;;;;;;;21.90;99.90;;;;;;5113044;28;20373;-71
2022/08/26 06:13:22;;;;;;;;;;;21.90;99.90;;;;;;5130899;28;20324;-71
2022/08/26 06:15:48;;;;;;;;;;;21.90;99.90;;;;;;5121814;28;20468;-71
2022/08/26 06:18:15;;;;;;;;;;;21.90;99.90;;;;;;5119258;28;19920;-71
2022/08/26 06:20:43;;;;;;;;;;;21.90;99.90;;;;;;5128220;28;20013;-71
2022/08/26 06:25:54;;;;;;;;;;;22.00;99.90;;;;;;5123764;28;19919;-71
2022/08/26 06:28:19;;;;;;;;;;;22.00;99.90;;;;;;5120716;28;19972;-72
2022/08/26 06:30:45;;;;;;;;;;;22.00;99.90;;;;;;5112886;28;20379;-71
2022/08/26 06:33:10;;;;;;;;;;;22.00;99.90;;;;;;5120369;28;19927;-71
2022/08/26 06:35:37;;;;;;;;;;;22.00;99.90;;;;;;5116959;28;19919;-72
2022/08/26 06:38:02;;;;;;;;;;;22.10;99.90;;;;;;5129804;28;19923;-71
2022/08/26 06:40:28;;;;;;;;;;;22.00;99.90;;;;;;5113209;28;20044;-70
2022/08/26 06:42:53;;;;;;;;;;;22.10;99.90;;;;;;5123348;27;19927;-71
2022/08/26 06:45:19;;;;;;;;;;;22.10;99.90;;;;;;5109383;28;19923;-71
2022/08/26 06:47:44;;;;;;;;;;;22.20;99.90;;;;;;5122606;28;20377;-71
2022/08/26 06:50:10;;;;;;;;;;;22.20;99.90;;;;;;5109866;28;19919;-71
2022/08/26 06:52:35;;;;;;;;;;;22.20;99.90;;;;;;5107711;28;19970;-71
2022/08/26 06:55:01;;;;;;;;;;;22.20;99.90;;;;;;5120730;28;19927;-71
2022/08/26 06:57:27;;;;;;;;;;;22.30;99.90;;;;;;5116102;27;21225;-71
2022/08/26 06:59:52;;;;;;;;;;;22.30;99.90;;;;;;5124125;27;19926;-70
2022/08/26 07:02:19;;;;;;;;;;;22.30;99.90;;;;;;5127651;27;19935;-72
2022/08/26 07:04:44;;;;;;;;;;;22.20;99.90;;;;;;5113843;27;19920;-71
2022/08/26 07:07:13;;;;;;;;;;;22.20;99.90;;;;;;5113722;27;19923;-71
2022/08/26 07:09:39;;;;;;;;;;;22.20;99.90;;;;;;5112432;28;20445;-72
2022/08/26 07:12:05;;;;;;;;;;;22.20;99.90;;;;;;5129516;27;19920;-71
2022/08/26 07:14:31;;;;;;;;;;;22.30;99.90;;;;;;5123870;27;19972;-71
2022/08/26 07:16:59;;;;;;;;;;;22.20;99.90;;;;;;5126367;27;19964;-71
2022/08/26 07:19:24;;;;;;;;;;;22.30;99.90;;;;;;5100747;28;19924;-71
2022/08/26 07:21:50;;;;;;;;;;;22.30;99.90;;;;;;5107258;28;19934;-71
2022/08/26 07:24:15;;;;;;;;;;;22.30;99.90;;;;;;5121877;27;19919;-71
2022/08/26 07:26:41;;;;;;;;;;;22.30;99.90;;;;;;5129644;27;19919;-71
2022/08/26 07:29:06;;;;;;;;;;;22.40;99.90;;;;;;5121711;27;20346;-72
2022/08/26 07:31:34;;;;;;;;;;;22.40;99.90;;;;;;5118646;27;20361;-71
2022/08/26 07:34:00;;;;;;;;;;;22.40;99.90;;;;;;5104708;28;19949;-71
2022/08/26 07:36:27;;;;;;;;;;;22.30;99.90;;;;;;5127871;27;19919;-71
2022/08/26 07:38:53;;;;;;;;;;;22.30;99.90;;;;;;5113952;27;19919;-71
2022/08/26 07:41:21;;;;;;;;;;;22.30;99.90;;;;;;5128844;27;19923;-71
2022/08/26 07:43:47;;;;;;;;;;;22.30;99.90;;;;;;5122282;27;19926;-71
2022/08/26 07:46:18;;;;;;;;;;;22.20;99.90;;;;;;5118610;27;20301;-71
2022/08/26 07:48:47;;;;;;;;;;;22.20;99.90;;;;;;5131900;27;19924;-71
2022/08/26 07:51:14;;;;;;;;;;;22.20;99.90;;;;;;5131218;27;19919;-71
2022/08/26 07:53:40;;;;;;;;;;;22.10;99.90;;;;;;5132949;27;19927;-71
2022/08/26 07:56:05;;;;;;;;;;;22.20;99.90;;;;;;5132374;27;19930;-71
2022/08/26 07:58:31;;;;;;;;;;;22.10;99.90;;;;;;5132047;27;19919;-71
2022/08/26 08:00:56;;;;;;;;;;;22.20;99.90;;;;;;5128121;27;19924;-71
2022/08/26 08:03:22;;;;;;;;;;;22.20;99.90;;;;;;5123887;27;20296;-71
2022/08/26 08:05:47;;;;;;;;;;;22.20;99.90;;;;;;5097724;28;19923;-71
2022/08/26 08:08:14;;;;;;;;;;;22.20;99.90;;;;;;5123068;27;19919;-71
2022/08/26 08:10:40;;;;;;;;;;;22.20;99.90;;;;;;5127293;27;19924;-71
2022/08/26 08:13:06;;;;;;;;;;;22.20;99.90;;;;;;5111925;28;19923;-71
2022/08/26 08:15:32;;;;;;;;;;;22.20;99.90;;;;;;5129955;27;19964;-71
2022/08/26 08:17:58;;;;;;;;;;;22.30;99.90;;;;;;5132673;27;19926;-71
2022/08/26 08:20:24;;;;;;;;;;;22.30;99.90;;;;;;5131737;27;19919;-71
2022/08/26 08:22:50;;;;;;;;;;;22.40;99.90;;;;;;5131993;27;20446;-71
2022/08/26 08:25:16;;;;;;;;;;;22.40;99.90;;;;;;5127505;27;19919;-71
2022/08/26 08:27:43;;;;;;;;;;;22.30;99.90;;;;;;5122836;27;19919;-71
2022/08/26 08:30:10;;;;;;;;;;;22.30;99.90;;;;;;5114752;27;19941;-72
2022/08/26 08:32:38;;;;;;;;;;;22.30;99.90;;;;;;5123347;27;19920;-72
2022/08/26 08:35:04;;;;;;;;;;;22.30;99.90;;;;;;5118740;27;19923;-72
2022/08/26 08:37:30;;;;;;;;;;;22.20;99.90;;;;;;5131629;27;20407;-71
2022/08/26 08:39:56;;;;;;;;;;;22.20;99.90;;;;;;5119136;27;19966;-71
2022/08/26 08:42:24;;;;;;;;;;;22.30;99.90;;;;;;5131009;27;19987;-71
2022/08/26 08:44:51;;;;;;;;;;;22.40;99.90;;;;;;5130386;27;20015;-71
2022/08/26 08:47:19;;;;;;;;;;;22.40;99.90;;;;;;5131546;27;20377;-71
2022/08/26 08:49:45;;;;;;;;;;;22.40;99.90;;;;;;5130596;27;19978;-72
2022/08/26 08:52:32;;;;;;;;;;;22.40;99.90;;;;;;5112989;27;19966;-71
2022/08/26 08:54:58;;;;;;;;;;;22.40;99.90;;;;;;5119796;27;19931;-70
2022/08/26 08:57:30;;;;;;;;;;;22.40;99.90;;;;;;5116782;27;19924;-71
2022/08/26 09:00:03;;;;;;;;;;;22.50;99.90;;;;;;5121278;27;20624;-72
2022/08/26 09:02:28;;;;;;;;;;;22.60;99.90;;;;;;5126660;27;19950;-72
2022/08/26 09:05:01;;;;;;;;;;;22.70;99.90;;;;;;5122212;27;19994;-70
2022/08/26 09:07:31;;;;;;;;;;;22.80;99.90;;;;;;5112154;27;20019;-71
2022/08/26 09:09:59;;;;;;;;;;;23.00;99.90;;;;;;5123924;27;20338;-70
2022/08/26 09:12:27;;;;;;;;;;;23.20;99.90;;;;;;5111762;27;19920;-70
2022/08/26 09:14:56;;;;;;;;;;;23.30;99.90;;;;;;5124193;27;19919;-70
2022/08/26 09:17:31;;;;;;;;;;;23.30;99.90;;;;;;5124403;27;19920;-71
2022/08/26 09:20:16;;;;;;;;;;;23.30;99.90;;;;;;5111601;27;20011;-70
2022/08/26 09:22:42;;;;;;;;;;;23.40;99.90;;;;;;5131207;27;19919;-71
2022/08/26 09:25:09;;;;;;;;;;;23.50;99.90;;;;;;5115077;27;20322;-70
2022/08/26 09:27:40;;;;;;;;;;;23.70;99.90;;;;;;5110844;28;20014;-70
2022/08/26 09:30:07;;;;;;;;;;;23.70;99.90;;;;;;5128264;27;19926;-70
2022/08/26 09:32:33;;;;;;;;;;;23.80;99.90;;;;;;5120213;27;20267;-70
2022/08/26 09:35:22;;;;;;;;;;;23.80;99.90;;;;;;5115571;27;19930;-70
2022/08/26 09:37:48;;;;;;;;;;;23.80;99.90;;;;;;5116301;27;20052;-71
2022/08/26 09:40:18;;;;;;;;;;;23.70;99.90;;;;;;5118693;27;19919;-71
2022/08/26 09:42:44;;;;;;;;;;;23.60;99.90;;;;;;5128347;27;19920;-71
2022/08/26 09:45:11;;;;;;;;;;;23.40;99.90;;;;;;5121529;27;19964;-72
2022/08/26 09:47:51;;;;;;;;;;;23.30;99.90;;;;;;5113071;27;19920;-71
2022/08/26 09:50:36;;;;;;;;;;;23.20;99.90;;;;;;5120497;27;20022;-71
2022/08/26 09:53:08;;;;;;;;;;;23.20;99.90;;;;;;5107389;28;19923;-72
2022/08/26 09:55:34;;;;;;;;;;;23.00;99.90;;;;;;5124164;27;20461;-71
2022/08/26 09:58:00;;;;;;;;;;;23.00;99.90;;;;;;5117616;27;19920;-71
2022/08/26 10:00:25;;;;;;;;;;;22.90;99.90;;;;;;5128828;27;19920;-71
2022/08/26 10:02:51;;;;;;;;;;;22.90;99.90;;;;;;5110409;27;20312;-71
2022/08/26 10:05:25;;;;;;;;;;;22.80;99.90;;;;;;5112656;28;19924;-71
2022/08/26 10:07:51;;;;;;;;;;;22.80;99.90;;;;;;5130719;27;19972;-71
2022/08/26 10:10:31;;;;;;;;;;;22.70;99.90;;;;;;5126575;28;20364;-71
2022/08/26 10:12:59;;;;;;;;;;;22.70;99.90;;;;;;5112802;27;19926;-72
2022/08/26 10:15:26;;;;;;;;;;;22.60;99.90;;;;;;5119021;28;19965;-71
2022/08/26 10:18:30;;;;;;;;;;;22.70;99.90;;;;;;5114458;28;19926;-71
2022/08/26 10:21:08;;;;;;;;;;;22.70;99.90;;;;;;5057638;28;19924;-71
2022/08/26 10:23:47;;;;;;;;;;;22.80;99.90;;;;;;5066841;28;20493;-71
2022/08/26 10:26:26;;;;;;;;;;;22.70;99.90;;;;;;5093444;28;19926;-71
2022/08/26 10:28:55;;;;;;;;;;;22.70;99.90;;;;;;5129814;28;20285;-71
2022/08/26 10:31:26;;;;;;;;;;;22.70;99.90;;;;;;5118048;27;19971;-71
2022/08/26 10:33:53;;;;;;;;;;;22.70;99.90;;;;;;5134555;27;20020;-71
2022/08/26 10:39:06;;;;;;;;;;;22.60;99.90;;;;;;5115637;27;19924;-71
2022/08/26 10:41:35;;;;;;;;;;;22.60;99.90;;;;;;5134537;27;19926;-71
2022/08/26 10:44:02;;;;;;;;;;;22.60;99.90;;;;;;5118263;27;20378;-71
2022/08/26 10:46:31;;;;;;;;;;;22.60;99.90;;;;;;5113952;27;19927;-71
2022/08/26 10:48:58;;;;;;;;;;;22.70;99.90;;;;;;5113635;28;20768;-71
2022/08/26 10:51:34;;;;;;;;;;;22.80;99.90;;;;;;5127172;27;19959;-72
2022/08/26 10:54:02;;;;;;;;;;;22.90;99.90;;;;;;5113682;27;19930;-71
2022/08/26 10:56:47;;;;;;;;;;;23.00;99.90;;;;;;5114487;27;19920;-71
2022/08/26 10:59:22;;;;;;;;;;;23.10;99.90;;;;;;5105743;28;19919;-71
2022/08/26 11:01:48;;;;;;;;;;;23.10;99.90;;;;;;5122085;27;19919;-72
2022/08/26 11:04:32;;;;;;;;;;;23.20;99.90;;;;;;5118602;27;20475;-71
2022/08/26 11:07:16;;;;;;;;;;;23.20;99.90;;;;;;5124561;27;19972;-71
2022/08/26 11:09:44;;;;;;;;;;;23.30;99.90;;;;;;5120486;27;20308;-71
2022/08/26 11:12:29;;;;;;;;;;;23.30;99.90;;;;;;5133733;27;19919;-71
2022/08/26 11:14:55;;;;;;;;;;;23.40;99.90;;;;;;5101456;28;20370;-72
2022/08/26 11:17:44;;;;;;;;;;;23.30;99.90;;;;;;5126560;27;19934;-72
2022/08/26 11:20:10;;;;;;;;;;;23.30;99.90;;;;;;5114541;27;19920;-71
2022/08/26 11:22:37;;;;;;;;;;;23.20;99.90;;;;;;5112667;27;19977;-71
2022/08/26 11:25:22;;;;;;;;;;;23.10;99.90;;;;;;5123889;27;20354;-72
2022/08/26 11:27:49;;;;;;;;;;;23.10;99.90;;;;;;5111950;28;19919;-73
2022/08/26 11:30:15;;;;;;;;;;;23.10;99.90;;;;;;5112483;27;19972;-72
2022/08/26 11:32:40;;;;;;;;;;;23.10;99.90;;;;;;5111730;28;19919;-72
2022/08/26 11:35:12;;;;;;;;;;;23.00;99.90;;;;;;5112170;28;20002;-72
2022/08/26 11:37:38;;;;;;;;;;;23.00;99.90;;;;;;5098811;28;20307;-71
2022/08/26 11:40:07;;;;;;;;;;;23.00;99.90;;;;;;5111793;27;19920;-72
2022/08/26 11:42:39;;;;;;;;;;;22.90;99.90;;;;;;5119469;27;20020;-72
2022/08/26 11:45:28;;;;;;;;;;;22.80;99.90;;;;;;5117758;27;20455;-72
2022/08/26 11:47:53;;;;;;;;;;;22.70;99.90;;;;;;5104950;27;19920;-72
2022/08/26 11:50:27;;;;;;;;;;;22.60;99.90;;;;;;5131085;27;19931;-72
2022/08/26 11:53:00;;;;;;;;;;;22.50;99.90;;;;;;5131917;27;20005;-71
2022/08/26 11:55:27;;;;;;;;;;;22.50;99.90;;;;;;5112744;27;19927;-71
2022/08/26 11:57:54;;;;;;;;;;;22.50;99.90;;;;;;5126630;27;19919;-71
2022/08/26 12:00:21;;;;;;;;;;;22.50;99.90;;;;;;5132199;27;19923;-70
2022/08/26 12:02:46;;;;;;;;;;;22.60;99.90;;;;;;5131202;27;19926;-71
2022/08/26 12:05:15;;;;;;;;;;;22.80;99.90;;;;;;5132464;27;20304;-71
2022/08/26 12:07:41;;;;;;;;;;;22.90;99.90;;;;;;5117450;27;19931;-72
2022/08/26 12:10:07;;;;;;;;;;;22.90;99.90;;;;;;5120716;27;19919;-71
2022/08/26 12:12:34;;;;;;;;;;;23.00;99.90;;;;;;5118636;27;20003;-71
2022/08/26 12:15:05;;;;;;;;;;;23.10;99.90;;;;;;5132338;27;19919;-72
2022/08/26 12:17:30;;;;;;;;;;;23.20;99.90;;;;;;5131274;27;19919;-71
2022/08/26 12:19:56;;;;;;;;;;;23.20;99.90;;;;;;5132049;27;19923;-71
2022/08/26 12:22:24;;;;;;;;;;;23.30;99.90;;;;;;5115688;27;19919;-71
2022/08/26 12:24:57;;;;;;;;;;;23.30;99.90;;;;;;5122043;27;20415;-71
2022/08/26 12:27:27;;;;;;;;;;;23.30;99.90;;;;;;5127412;27;19920;-72
2022/08/26 12:30:04;;;;;;;;;;;23.40;99.90;;;;;;5124163;27;19919;-71
2022/08/26 12:32:30;;;;;;;;;;;23.40;99.90;;;;;;5124765;27;19919;-71
2022/08/26 12:34:56;;;;;;;;;;;23.40;99.90;;;;;;5125131;27;19968;-72
2022/08/26 12:37:23;;;;;;;;;;;23.40;99.90;;;;;;5094677;28;20297;-71
2022/08/26 12:39:49;;;;;;;;;;;23.40;99.90;;;;;;5124153;27;19931;-71
2022/08/26 12:42:14;;;;;;;;;;;23.40;99.90;;;;;;5111874;27;19920;-72
2022/08/26 12:44:42;;;;;;;;;;;23.30;99.90;;;;;;5112068;27;19923;-71
2022/08/26 12:47:18;;;;;;;;;;;23.30;99.90;;;;;;5118694;27;19972;-71
2022/08/26 12:49:44;;;;;;;;;;;23.20;99.90;;;;;;5128736;27;19920;-72
2022/08/26 12:52:39;;;;;;;;;;;23.10;99.90;;;;;;5110734;28;20425;-71
2022/08/26 12:55:16;;;;;;;;;;;23.10;99.90;;;;;;5102797;27;19923;-71
2022/08/26 12:57:42;;;;;;;;;;;22.90;99.90;;;;;;5117169;27;19963;-71
2022/08/26 13:00:26;;;;;;;;;;;22.80;99.90;;;;;;5131384;27;20369;-72
2022/08/26 13:02:52;;;;;;;;;;;22.60;99.90;;;;;;5114746;27;19919;-71
2022/08/26 13:05:22;;;;;;;;;;;22.40;99.90;;;;;;5110968;27;20759;-71
2022/08/26 13:08:06;;;;;;;;;;;22.30;99.90;;;;;;5110545;27;20324;-71
2022/08/26 13:10:35;;;;;;;;;;;22.20;99.90;;;;;;5124774;27;19920;-71
2022/08/26 13:13:00;;;;;;;;;;;22.10;99.90;;;;;;5076624;28;20285;-73
2022/08/26 13:15:26;;;;;;;;;;;21.90;99.90;;;;;;5124842;27;20010;-71
2022/08/26 13:17:51;;;;;;;;;;;21.80;99.90;;;;;;5106403;28;20014;-73
2022/08/26 13:20:17;;;;;;;;;;;21.70;99.90;;;;;;5092843;28;19927;-72
2022/08/26 13:22:43;;;;;;;;;;;21.70;99.90;;;;;;5117664;27;19919;-72
2022/08/26 13:25:08;;;;;;;;;;;21.60;99.90;;;;;;5118685;27;20390;-73
2022/08/26 13:27:34;;;;;;;;;;;21.70;99.90;;;;;;5117138;27;19936;-72
2022/08/26 13:30:00;;;;;;;;;;;21.60;99.90;;;;;;5131087;27;19972;-72
2022/08/26 13:32:26;;;;;;;;;;;21.60;99.90;;;;;;5125081;27;20020;-72
2022/08/26 13:34:52;;;;;;;;;;;21.60;99.90;;;;;;5111183;28;20328;-72
2022/08/26 13:37:21;;;;;;;;;;;21.60;99.90;;;;;;5124511;27;20421;-73
2022/08/26 13:39:47;;;;;;;;;;;21.50;99.90;;;;;;5111217;28;19920;-72
2022/08/26 13:42:13;;;;;;;;;;;21.50;99.90;;;;;;5123802;27;20037;-72
2022/08/26 13:44:39;;;;;;;;;;;21.50;99.90;;;;;;5111207;27;20010;-72
2022/08/26 13:47:05;;;;;;;;;;;21.50;99.90;;;;;;5123366;27;19967;-73
2022/08/26 13:49:31;;;;;;;;;;;21.60;99.90;;;;;;5110953;28;19968;-72
2022/08/26 13:51:56;;;;;;;;;;;21.60;99.90;;;;;;5105742;28;20010;-73
2022/08/26 13:54:22;;;;;;;;;;;21.80;99.90;;;;;;5111910;27;19920;-73
2022/08/26 13:56:48;;;;;;;;;;;21.90;99.90;;;;;;5111525;27;19927;-72
2022/08/26 13:59:13;;;;;;;;;;;22.10;99.90;;;;;;5123517;27;19920;-72
2022/08/26 14:01:39;;;;;;;;;;;22.10;99.90;;;;;;5111445;27;19931;-73
2022/08/26 14:04:04;;;;;;;;;;;22.10;99.90;;;;;;5123306;27;19919;-73
2022/08/26 14:06:30;;;;;;;;;;;22.10;99.90;;;;;;5123346;27;19919;-73
2022/08/26 14:08:57;;;;;;;;;;;22.10;99.90;;;;;;5123867;27;19972;-73
2022/08/26 14:11:23;;;;;;;;;;;22.10;99.90;;;;;;5129997;28;19938;-74
2022/08/26 14:13:49;;;;;;;;;;;22.20;99.90;;;;;;5109667;28;19926;-73
2022/08/26 14:16:20;;;;;;;;;;;23.10;99.90;;;;;;5130137;28;20297;-73
2022/08/26 14:18:47;;;;;;;;;;;23.90;99.90;;;;;;5116865;28;19981;-72
2022/08/26 14:21:12;;;;;;;;;;;24.30;99.90;;;;;;5123073;28;20512;-70
2022/08/26 14:23:39;;;;;;;;;;;24.20;99.90;;;;;;5123349;27;19930;-70
2022/08/26 14:26:07;;;;;;;;;;;23.90;99.90;;;;;;5116260;28;19925;-70
2022/08/26 14:28:33;;;;;;;;;;;23.50;99.90;;;;;;5129920;28;19965;-72